createdAt,value
2019-03-08T00:01:10.354Z,78.73
2019-03-08T00:03:43.730Z,72.27
2019-03-08T00:06:18.362Z,74.50
2019-03-08T00:08:51.875Z,81.37
2019-03-08T00:11:27.393Z,81.65
2019-03-08T00:14:02.042Z,62.58
2019-03-08T00:16:36.774Z,67.87
2019-03-08T00:19:11.929Z,76.00
2019-03-08T00:21:45.147Z,63.27
2019-03-08T00:24:18.558Z,68.57
2019-03-08T00:26:51.898Z,60.77
2019-03-08T00:29:26.099Z,68.05
2019-03-08T00:31:59.422Z,55.40
2019-03-08T00:34:37.511Z,65.67
2019-03-08T00:37:11.682Z,68.43
2019-03-08T00:39:45.303Z,62.80
2019-03-08T00:42:18.728Z,72.23
2019-03-08T00:44:55.606Z,60.20
2019-03-08T00:47:28.995Z,70.13
2019-03-08T00:50:02.291Z,67.10
2019-03-08T00:52:35.589Z,67.27
2019-03-08T00:55:11.671Z,85.83
2019-03-08T00:57:44.991Z,60.00
2019-03-08T01:00:27.481Z,66.53
2019-03-08T01:03:00.939Z,67.92
2019-03-08T01:05:34.391Z,66.67
2019-03-08T01:08:09.391Z,71.10
2019-03-08T01:10:42.584Z,63.30
2019-03-08T01:13:15.814Z,77.60
2019-03-08T01:15:49.341Z,69.90
2019-03-08T01:18:22.706Z,74.30
2019-03-08T01:20:56.383Z,73.47
2019-03-08T01:23:29.741Z,62.37
2019-03-08T01:26:05.077Z,64.30
2019-03-08T01:28:38.493Z,72.77
2019-03-08T01:31:11.777Z,68.60
2019-03-08T01:33:45.167Z,90.47
2019-03-08T01:36:18.620Z,68.73
2019-03-08T01:38:52.043Z,72.30
2019-03-08T01:41:26.529Z,76.15
2019-03-08T01:43:59.950Z,73.33
2019-03-08T01:46:33.397Z,77.77
2019-03-08T01:49:08.309Z,58.07
2019-03-08T01:51:42.012Z,72.27
2019-03-08T01:54:15.246Z,74.00
2019-03-08T01:56:48.544Z,79.87
2019-03-08T01:59:21.803Z,71.77
2019-03-08T02:01:55.419Z,81.93
2019-03-08T02:04:28.771Z,84.57
2019-03-08T02:07:02.137Z,71.27
2019-03-08T02:09:38.065Z,83.40
2019-03-08T02:12:11.670Z,72.17
2019-03-08T02:14:45.075Z,91.63
2019-03-08T02:17:20.850Z,75.80
2019-03-08T02:19:53.217Z,80.33
2019-03-08T02:22:26.955Z,69.75
2019-03-08T02:25:00.372Z,75.50
2019-03-08T02:27:39.072Z,67.77
2019-03-08T02:30:16.887Z,70.83
2019-03-08T02:32:50.550Z,73.87
2019-03-08T02:35:24.302Z,64.53
2019-03-08T02:37:57.719Z,74.03
2019-03-08T02:40:38.285Z,75.62
2019-03-08T02:43:17.154Z,85.70
2019-03-08T02:45:51.977Z,64.90
2019-03-08T02:48:25.273Z,63.43
2019-03-08T02:51:00.169Z,61.58
2019-03-08T02:53:33.622Z,61.37
2019-03-08T02:56:09.350Z,67.93
2019-03-08T02:58:43.089Z,69.03
2019-03-08T03:01:16.510Z,61.90
2019-03-08T03:03:50.470Z,65.97
2019-03-08T03:06:23.774Z,55.60
2019-03-08T03:08:58.090Z,52.37
2019-03-08T03:11:32.009Z,73.50
2019-03-08T03:14:12.425Z,54.63
2019-03-08T03:16:45.800Z,51.43
2019-03-08T03:19:23.064Z,62.60
2019-03-08T03:22:02.882Z,61.87
2019-03-08T03:24:41.967Z,58.83
2019-03-08T03:27:09.022Z,52.50
2019-03-08T03:29:42.353Z,46.13
2019-03-08T03:32:15.626Z,62.40
2019-03-08T03:34:48.898Z,46.37
2019-03-08T03:37:23.210Z,57.17
2019-03-08T03:39:58.513Z,62.73
2019-03-08T03:42:33.810Z,49.03
2019-03-08T03:45:09.404Z,51.57
2019-03-08T03:47:42.810Z,59.27
2019-03-08T03:50:18.338Z,50.03
2019-03-08T03:52:53.445Z,53.17
2019-03-08T03:55:28.174Z,43.47
2019-03-08T03:58:01.799Z,69.30
2019-03-08T04:00:35.103Z,51.80
2019-03-08T04:03:10.182Z,50.30
2019-03-08T04:05:43.446Z,45.70
2019-03-08T04:08:16.766Z,50.20
2019-03-08T04:10:51.781Z,41.87
2019-03-08T04:13:25.229Z,52.80
2019-03-08T04:15:59.976Z,50.37
2019-03-08T04:18:33.401Z,49.73
2019-03-08T04:21:06.573Z,51.10
2019-03-08T04:23:39.912Z,37.38
2019-03-08T04:26:13.334Z,38.43
2019-03-08T04:28:46.622Z,40.40
2019-03-08T04:31:19.875Z,38.90
2019-03-08T04:33:53.516Z,37.07
2019-03-08T04:36:30.356Z,40.73
2019-03-08T04:39:03.667Z,47.53
2019-03-08T04:41:38.233Z,54.85
2019-03-08T04:44:11.851Z,46.45
2019-03-08T04:46:46.648Z,38.77
2019-03-08T04:49:21.490Z,37.53
2019-03-08T04:51:54.772Z,43.00
2019-03-08T04:54:29.731Z,40.23
2019-03-08T04:57:02.950Z,36.17
2019-03-08T04:59:36.225Z,34.83
2019-03-08T05:02:09.666Z,34.17
2019-03-08T05:04:43.128Z,44.10
2019-03-08T05:07:16.414Z,32.07
2019-03-08T05:09:49.679Z,36.28
2019-03-08T05:12:23.033Z,36.53
2019-03-08T05:14:58.263Z,34.30
2019-03-08T05:17:31.619Z,39.53
2019-03-08T05:20:05.554Z,52.87
2019-03-08T05:22:40.595Z,37.13
2019-03-08T05:25:15.158Z,35.03
2019-03-08T05:27:48.593Z,31.20
2019-03-08T05:30:22.253Z,42.43
2019-03-08T05:32:55.514Z,26.87
2019-03-08T05:35:29.039Z,36.63
2019-03-08T05:38:03.191Z,32.60
2019-03-08T05:40:36.777Z,27.93
2019-03-08T05:43:10.693Z,25.27
2019-03-08T05:45:45.369Z,22.67
2019-03-08T05:48:18.647Z,26.27
2019-03-08T05:50:51.945Z,27.55
2019-03-08T05:53:25.745Z,27.27
2019-03-08T05:55:59.634Z,34.03
2019-03-08T05:58:33.222Z,27.77
2019-03-08T06:01:06.400Z,34.90
2019-03-08T06:03:39.708Z,24.30
2019-03-08T06:06:13.035Z,27.03
2019-03-08T06:08:46.282Z,29.70
2019-03-08T06:11:19.617Z,39.00
2019-03-08T06:13:54.632Z,35.33
2019-03-08T06:16:28.946Z,34.23
2019-03-08T06:19:03.260Z,34.48
2019-03-08T06:21:36.561Z,27.77
2019-03-08T06:24:10.282Z,26.15
2019-03-08T06:26:43.686Z,25.07
2019-03-08T06:29:18.262Z,21.40
2019-03-08T06:31:51.758Z,43.27
2019-03-08T06:34:25.348Z,31.80
2019-03-08T06:36:58.780Z,31.43
2019-03-08T06:39:34.255Z,26.20
2019-03-08T06:42:09.802Z,33.87
2019-03-08T06:44:43.097Z,29.20
2019-03-08T06:47:16.587Z,41.08
2019-03-08T06:49:49.928Z,29.50
2019-03-08T06:52:23.628Z,41.77
2019-03-08T06:55:01.232Z,28.63
2019-03-08T06:57:34.503Z,35.23
2019-03-08T07:00:10.331Z,45.93
2019-03-08T07:02:44.192Z,34.85
2019-03-08T07:05:17.514Z,36.00
2019-03-08T07:07:52.007Z,37.73
2019-03-08T07:10:26.949Z,33.07
2019-03-08T07:13:03.537Z,29.47
2019-03-08T07:15:35.004Z,37.57
2019-03-08T07:18:12.574Z,29.67
2019-03-08T07:20:43.038Z,28.90
2019-03-08T07:23:16.321Z,30.37
2019-03-08T07:25:52.601Z,33.13
2019-03-08T07:28:24.182Z,20.30
2019-03-08T07:30:58.207Z,38.40
2019-03-08T07:33:31.527Z,37.00
2019-03-08T07:36:06.719Z,29.17
2019-03-08T07:38:40.231Z,33.15
2019-03-08T07:41:13.811Z,33.57
2019-03-08T07:43:47.200Z,40.90
2019-03-08T07:46:20.761Z,26.80
2019-03-08T07:48:54.316Z,35.00
2019-03-08T07:51:27.629Z,29.07
2019-03-08T07:54:01.316Z,38.77
2019-03-08T07:56:35.801Z,25.87
2019-03-08T07:59:09.578Z,31.42
2019-03-08T08:01:42.911Z,33.10
2019-03-08T08:04:19.341Z,44.77
2019-03-08T08:07:01.230Z,35.07
2019-03-08T08:09:53.761Z,35.08
2019-03-08T08:12:27.666Z,44.67
2019-03-08T08:15:01.145Z,36.13
2019-03-08T08:17:38.195Z,45.50
2019-03-08T08:20:16.342Z,32.83
2019-03-08T08:22:47.700Z,42.17
2019-03-08T08:25:21.223Z,37.70
2019-03-08T08:27:54.615Z,54.47
2019-03-08T08:30:29.490Z,36.63
2019-03-08T08:33:03.060Z,41.27
2019-03-08T08:35:36.320Z,48.13
2019-03-08T08:38:12.838Z,47.47
2019-03-08T08:40:46.395Z,48.73
2019-03-08T08:43:20.137Z,49.08
2019-03-08T08:45:55.107Z,42.20
2019-03-08T08:48:29.777Z,45.47
2019-03-08T08:51:03.153Z,54.77
2019-03-08T08:53:36.507Z,54.75
2019-03-08T08:56:10.594Z,57.10
2019-03-08T08:58:44.044Z,50.87
2019-03-08T09:01:17.398Z,46.27
2019-03-08T09:03:51.380Z,51.93
2019-03-08T09:06:26.718Z,56.10
2019-03-08T09:09:00.207Z,52.50
2019-03-08T09:11:43.800Z,62.03
2019-03-08T09:14:10.577Z,50.40
2019-03-08T09:16:45.992Z,55.53
2019-03-08T09:19:20.981Z,54.85
2019-03-08T09:21:54.659Z,49.03
2019-03-08T09:24:29.764Z,60.80
2019-03-08T09:27:03.403Z,56.03
2019-03-08T09:29:41.225Z,53.10
2019-03-08T09:32:16.586Z,56.50
2019-03-08T09:34:53.156Z,67.17
2019-03-08T09:37:29.827Z,66.83
2019-03-08T09:40:05.107Z,72.53
2019-03-08T09:42:38.891Z,68.80
2019-03-08T09:45:13.521Z,64.40
2019-03-08T09:47:48.056Z,55.37
2019-03-08T09:50:27.199Z,74.30
2019-03-08T09:53:02.673Z,61.63
2019-03-08T09:55:38.860Z,57.80
2019-03-08T09:58:13.848Z,76.53
2019-03-08T10:00:48.091Z,99.52
2019-03-08T10:03:21.701Z,66.60
2019-03-08T10:05:57.076Z,81.07
2019-03-08T10:08:32.803Z,83.20
2019-03-08T10:11:07.014Z,73.50
2019-03-08T10:13:41.493Z,76.82
2019-03-08T10:16:17.983Z,76.77
2019-03-08T10:18:54.113Z,85.03
2019-03-08T10:21:28.282Z,70.60
2019-03-08T10:24:04.217Z,75.83
2019-03-08T10:26:39.816Z,88.03
2019-03-08T10:29:15.106Z,80.97
2019-03-08T10:31:49.054Z,93.67
2019-03-08T10:34:25.541Z,84.43
2019-03-08T10:37:01.218Z,76.20
2019-03-08T10:39:38.105Z,81.53
2019-03-08T10:42:13.202Z,81.12
2019-03-08T10:44:50.125Z,93.67
2019-03-08T10:47:31.181Z,73.93
2019-03-08T10:50:10.336Z,75.32
2019-03-08T10:52:51.523Z,76.47
2019-03-08T10:55:25.874Z,76.23
2019-03-08T10:58:01.684Z,83.80
2019-03-08T11:00:38.788Z,78.97
2019-03-08T11:03:15.789Z,91.00
2019-03-08T11:05:51.021Z,71.27
2019-03-08T11:08:29.709Z,72.43
2019-03-08T11:11:06.576Z,80.53
2019-03-08T11:13:45.550Z,76.30
2019-03-08T11:16:25.052Z,79.60
2019-03-08T11:19:08.458Z,82.70
2019-03-08T11:21:37.091Z,92.47
2019-03-08T11:24:13.225Z,87.03
2019-03-08T11:26:48.018Z,87.17
2019-03-08T11:29:22.324Z,73.30
2019-03-08T11:31:56.567Z,79.23
2019-03-08T11:34:32.707Z,85.00
2019-03-08T11:37:07.727Z,85.97
2019-03-08T11:39:42.193Z,93.07
2019-03-08T11:42:16.599Z,94.70
2019-03-08T11:44:51.073Z,90.07
2019-03-08T11:47:25.427Z,105.40
2019-03-08T11:50:00.038Z,117.83
2019-03-08T11:52:34.755Z,110.63
2019-03-08T11:55:10.769Z,95.95
2019-03-08T11:57:45.152Z,121.87
2019-03-08T12:00:20.104Z,109.00
2019-03-08T12:02:54.879Z,116.07
2019-03-08T12:05:29.333Z,128.57
2019-03-08T12:08:05.130Z,127.78
2019-03-08T12:10:41.430Z,133.40
2019-03-08T12:13:16.721Z,123.13
2019-03-08T12:15:57.056Z,145.00
2019-03-08T12:18:34.279Z,139.57
2019-03-08T12:21:09.512Z,132.60
2019-03-08T12:23:49.159Z,140.65
2019-03-08T12:26:24.689Z,100.80
2019-03-08T12:28:59.235Z,113.33
2019-03-08T12:31:33.380Z,112.77
2019-03-08T12:34:07.757Z,109.70
2019-03-08T12:36:42.764Z,124.03
2019-03-08T12:39:18.360Z,110.07
2019-03-08T12:41:54.177Z,89.67
2019-03-08T12:44:28.859Z,110.27
2019-03-08T12:47:04.123Z,97.33
2019-03-08T12:49:38.575Z,92.07
2019-03-08T12:52:17.719Z,126.03
2019-03-08T12:54:52.226Z,117.82
2019-03-08T12:57:26.318Z,116.80
2019-03-08T13:00:00.519Z,92.22
2019-03-08T13:02:35.156Z,110.17
2019-03-08T13:05:10.111Z,102.10
2019-03-08T13:07:46.564Z,104.67
2019-03-08T13:10:22.311Z,93.63
2019-03-08T13:12:56.972Z,104.47
2019-03-08T13:15:31.492Z,76.73
2019-03-08T13:18:06.169Z,82.20
2019-03-08T13:20:40.326Z,83.57
2019-03-08T13:23:16.874Z,69.73
2019-03-08T13:25:51.143Z,113.68
2019-03-08T13:28:29.616Z,89.37
2019-03-08T13:31:04.288Z,64.70
2019-03-08T13:33:38.903Z,81.72
2019-03-08T13:36:13.153Z,62.25
2019-03-08T13:38:47.176Z,70.57
2019-03-08T13:41:21.204Z,66.20
2019-03-08T13:43:55.892Z,63.07
2019-03-08T13:46:29.915Z,66.03
2019-03-08T13:49:04.457Z,79.00
2019-03-08T13:51:39.024Z,67.42
2019-03-08T13:54:15.214Z,70.37
2019-03-08T13:56:49.325Z,70.03
2019-03-08T13:59:23.601Z,73.50
2019-03-08T14:01:58.056Z,59.50
2019-03-08T14:04:32.388Z,63.30
2019-03-08T14:07:06.165Z,78.10
2019-03-08T14:09:42.319Z,62.20
2019-03-08T14:12:16.419Z,68.87
2019-03-08T14:14:52.068Z,64.00
2019-03-08T14:17:29.649Z,64.03
2019-03-08T14:20:03.713Z,66.17
2019-03-08T14:22:39.019Z,69.63
2019-03-08T14:25:14.179Z,69.30
2019-03-08T14:27:49.702Z,87.00
2019-03-08T14:30:26.741Z,76.33
2019-03-08T14:33:01.535Z,85.93
2019-03-08T14:35:34.227Z,76.90
2019-03-08T14:38:09.696Z,81.57
2019-03-08T14:40:43.410Z,90.23
2019-03-08T14:43:17.881Z,82.20
2019-03-08T14:45:51.804Z,94.87
2019-03-08T14:48:29.463Z,79.07
2019-03-08T14:51:09.211Z,101.07
2019-03-08T14:53:41.956Z,78.47
2019-03-08T14:56:15.425Z,88.30
2019-03-08T14:58:48.715Z,80.93
2019-03-08T15:01:22.014Z,100.77
2019-03-08T15:03:56.597Z,91.83
2019-03-08T15:06:30.054Z,112.90
2019-03-08T15:09:03.659Z,117.47
2019-03-08T15:11:37.467Z,119.50
2019-03-08T15:14:12.523Z,97.00
2019-03-08T15:16:46.195Z,107.10
2019-03-08T15:19:21.122Z,118.20
2019-03-08T15:21:54.356Z,98.53
2019-03-08T15:24:27.820Z,119.73
2019-03-08T15:27:01.414Z,124.47
2019-03-08T15:29:36.845Z,119.43
2019-03-08T15:32:10.821Z,110.32
2019-03-08T15:34:44.288Z,129.63
2019-03-08T15:37:18.219Z,104.13
2019-03-08T15:39:51.774Z,102.50
2019-03-08T15:42:25.345Z,105.60
2019-03-08T15:45:01.813Z,82.23
2019-03-08T15:47:36.224Z,102.70
2019-03-08T15:50:09.859Z,102.80
2019-03-08T15:52:43.399Z,119.77
2019-03-08T15:55:18.223Z,105.87
2019-03-08T15:57:51.741Z,90.83
2019-03-08T16:00:25.666Z,103.03
2019-03-08T16:02:59.000Z,114.30
2019-03-08T16:05:32.317Z,85.80
2019-03-08T16:08:08.155Z,122.80
2019-03-08T16:10:41.681Z,92.87
2019-03-08T16:13:17.197Z,104.37
2019-03-08T16:15:50.553Z,110.87
2019-03-08T16:18:23.825Z,95.60
2019-03-08T16:20:57.035Z,108.83
2019-03-08T16:23:30.383Z,100.83
2019-03-08T16:26:03.683Z,100.53
2019-03-08T16:28:37.056Z,118.00
2019-03-08T16:31:10.156Z,85.77
2019-03-08T16:33:43.099Z,101.23
2019-03-08T16:36:16.040Z,114.53
2019-03-08T16:38:48.992Z,99.87
2019-03-08T16:41:22.053Z,79.80
2019-03-08T16:43:55.037Z,96.53
2019-03-08T16:46:29.247Z,91.13
2019-03-08T16:49:02.735Z,95.73
2019-03-08T16:51:36.640Z,96.63
2019-03-08T16:54:09.665Z,85.07
2019-03-08T16:56:44.706Z,95.47
2019-03-08T16:59:17.972Z,93.90
2019-03-08T17:01:51.270Z,106.27
2019-03-08T17:04:24.628Z,104.87
2019-03-08T17:06:57.953Z,85.50
2019-03-08T17:09:36.017Z,84.47
2019-03-08T17:12:07.683Z,95.17
2019-03-08T17:14:40.932Z,92.33
2019-03-08T17:17:17.386Z,97.00
2019-03-08T17:19:52.727Z,91.97
2019-03-08T17:22:26.036Z,92.47
2019-03-08T17:24:59.336Z,79.63
2019-03-08T17:27:32.851Z,89.07
2019-03-08T17:30:07.345Z,81.33
2019-03-08T17:32:40.664Z,83.30
2019-03-08T17:35:14.374Z,94.23
2019-03-08T17:37:48.719Z,109.87
2019-03-08T17:40:21.945Z,99.43
2019-03-08T17:42:57.069Z,92.20
2019-03-08T17:45:30.317Z,79.20
2019-03-08T17:48:03.642Z,90.47
2019-03-08T17:50:38.304Z,96.06
2019-03-08T17:53:14.193Z,98.33
2019-03-08T17:55:47.574Z,86.13
2019-03-08T17:58:21.171Z,102.70
2019-03-08T18:00:54.635Z,98.63
2019-03-08T18:03:27.905Z,93.87
2019-03-08T18:06:01.556Z,90.93
2019-03-08T18:08:36.694Z,86.83
2019-03-08T18:11:11.094Z,95.87
2019-03-08T18:13:44.593Z,87.50
2019-03-08T18:16:17.932Z,90.83
2019-03-08T18:18:51.235Z,93.52
2019-03-08T18:21:27.673Z,93.13
2019-03-08T18:24:01.047Z,103.27
2019-03-08T18:26:34.426Z,98.87
2019-03-08T18:29:11.856Z,95.25
2019-03-08T18:31:43.574Z,109.67
2019-03-08T18:34:16.949Z,100.70
2019-03-08T18:36:50.538Z,98.77
2019-03-08T18:39:23.957Z,130.67
2019-03-08T18:41:57.457Z,106.53
2019-03-08T18:44:31.181Z,108.33
2019-03-08T18:47:04.561Z,91.32
2019-03-08T18:49:38.710Z,101.53
2019-03-08T18:52:12.058Z,100.40
2019-03-08T18:54:45.538Z,104.50
2019-03-08T18:57:19.028Z,101.07
2019-03-08T18:59:52.506Z,96.33
2019-03-08T19:02:27.227Z,100.90
2019-03-08T19:05:00.492Z,114.90
2019-03-08T19:07:35.350Z,116.85
2019-03-08T19:10:10.859Z,94.90
2019-03-08T19:12:44.142Z,109.83
2019-03-08T19:15:17.723Z,116.60
2019-03-08T19:17:51.148Z,114.07
2019-03-08T19:20:26.213Z,103.90
2019-03-08T19:23:01.116Z,107.67
2019-03-08T19:25:34.499Z,101.03
2019-03-08T19:28:09.078Z,98.14
2019-03-08T19:30:42.562Z,119.33
2019-03-08T19:33:16.055Z,90.20
2019-03-08T19:35:49.342Z,102.30
2019-03-08T19:38:22.581Z,104.37
2019-03-08T19:40:56.069Z,102.58
2019-03-08T19:43:29.314Z,106.10
2019-03-08T19:46:02.658Z,93.33
2019-03-08T19:48:35.961Z,133.33
2019-03-08T19:51:09.611Z,112.03
2019-03-08T19:53:44.296Z,87.73
2019-03-08T19:56:17.650Z,95.80
2019-03-08T19:58:50.987Z,111.40
2019-03-08T20:01:24.217Z,95.60
2019-03-08T20:03:57.402Z,93.73
2019-03-08T20:06:30.759Z,105.67
2019-03-08T20:09:04.081Z,105.50
2019-03-08T20:11:37.615Z,93.07
2019-03-08T20:14:11.132Z,104.60
2019-03-08T20:16:44.466Z,108.70
2019-03-08T20:19:19.075Z,106.63
2019-03-08T20:21:52.557Z,87.83
2019-03-08T20:24:26.034Z,104.73
2019-03-08T20:26:59.337Z,110.27
2019-03-08T20:29:33.181Z,94.07
2019-03-08T20:32:06.726Z,92.23
2019-03-08T20:34:40.067Z,101.53
2019-03-08T20:37:13.375Z,103.07
2019-03-08T20:39:48.687Z,98.30
2019-03-08T20:42:21.989Z,112.17
2019-03-08T20:44:55.336Z,97.95
2019-03-08T20:47:28.638Z,100.40
2019-03-08T20:50:01.919Z,104.50
2019-03-08T20:52:35.180Z,95.00
2019-03-08T20:55:10.742Z,98.20
2019-03-08T20:57:43.987Z,98.58
2019-03-08T21:00:21.226Z,98.33
2019-03-08T21:02:54.740Z,100.93
2019-03-08T21:05:27.932Z,98.17
2019-03-08T21:08:01.292Z,108.40
2019-03-08T21:10:35.059Z,82.67
2019-03-08T21:13:08.355Z,112.63
2019-03-08T21:15:41.634Z,102.27
2019-03-08T21:18:14.979Z,87.85
2019-03-08T21:20:48.598Z,84.60
2019-03-08T21:23:21.854Z,93.17
2019-03-08T21:25:55.122Z,94.23
2019-03-08T21:28:28.385Z,113.10
2019-03-08T21:31:02.081Z,91.17
2019-03-08T21:33:35.523Z,89.43
2019-03-08T21:36:08.949Z,88.27
2019-03-08T21:38:42.227Z,90.93
2019-03-08T21:41:15.739Z,83.57
2019-03-08T21:43:49.106Z,94.13
2019-03-08T21:46:22.360Z,99.77
2019-03-08T21:48:55.613Z,94.03
2019-03-08T21:51:29.319Z,85.13
2019-03-08T21:54:02.654Z,82.30
2019-03-08T21:56:36.017Z,98.03
2019-03-08T21:59:09.333Z,93.17
2019-03-08T22:01:42.602Z,96.30
2019-03-08T22:04:15.882Z,92.60
2019-03-08T22:06:49.185Z,102.47
2019-03-08T22:09:22.477Z,100.67
2019-03-08T22:11:55.845Z,94.93
2019-03-08T22:14:29.186Z,94.20
2019-03-08T22:17:03.777Z,85.43
2019-03-08T22:19:37.167Z,105.47
2019-03-08T22:22:10.991Z,91.40
2019-03-08T22:24:44.399Z,96.07
2019-03-08T22:27:17.774Z,96.60
2019-03-08T22:29:51.044Z,94.03
2019-03-08T22:32:24.321Z,98.27
2019-03-08T22:34:57.689Z,89.47
2019-03-08T22:37:32.427Z,86.40
2019-03-08T22:40:05.901Z,89.83
2019-03-08T22:42:40.046Z,91.20
2019-03-08T22:45:14.527Z,107.97
2019-03-08T22:47:47.907Z,103.27
2019-03-08T22:50:22.786Z,97.70
2019-03-08T22:52:56.196Z,100.63
2019-03-08T22:55:29.528Z,95.73
2019-03-08T22:58:04.562Z,104.87
2019-03-08T23:00:54.994Z,100.23
2019-03-08T23:03:29.023Z,97.53
2019-03-08T23:06:02.273Z,110.73
2019-03-08T23:08:38.235Z,105.67
2019-03-08T23:11:11.883Z,112.30
2019-03-08T23:13:45.211Z,111.45
2019-03-08T23:16:18.742Z,111.60
2019-03-08T23:18:52.408Z,117.17
2019-03-08T23:21:27.047Z,102.92
2019-03-08T23:24:02.336Z,120.03
2019-03-08T23:26:35.886Z,111.63
2019-03-08T23:29:09.191Z,114.37
2019-03-08T23:31:42.653Z,111.90
2019-03-08T23:34:16.096Z,109.55
2019-03-08T23:36:49.686Z,125.70
2019-03-08T23:39:24.822Z,128.05
2019-03-08T23:41:59.370Z,113.20
2019-03-08T23:44:34.320Z,120.23
2019-03-08T23:47:08.624Z,113.97
2019-03-08T23:49:43.420Z,119.33
2019-03-08T23:52:17.123Z,120.83
2019-03-08T23:54:51.216Z,131.57
2019-03-08T23:57:34.000Z,135.80
